Flight Track Log - Related Links

Times and Time Zones

All times are in EDT time to prevent confusion due to time zone crossing. See the EGF3793 flight status page for this flight to view local times or setup timezone preferences in your user account.

Time Position Orientation Groundspeed Altitude Reporting Facility
EDT Latitude Longitude Course Direction KTS MPH feet Rate Location/Type
Wed 11:19:51 PM 41.9833 -87.8833 201° Southwest 174 200 1,600  Level Chicago TRACON
Wed 11:20:57 PM 41.9333 -87.9000 194° South 216 249 4,700 2,598 Climbing Chicago TRACON
Wed 11:22:00 PM 41.6525 -88.0542 203° Southwest  Level FlightAware Approximate
Wed 11:23:00 PM 41.5438 -88.1059 197° South  Level FlightAware Approximate
Wed 11:23:05 PM 41.8017 -87.9783 204° Southwest 282 325 10,000  Level Chicago Center
Wed 11:24:00 PM 41.4331 -88.1501 194° South  Level FlightAware Approximate
Wed 11:24:06 PM 41.7244 -88.0172 201° Southwest 296 341 12,200  Level Chicago Center
Wed 11:25:00 PM 41.3232 -88.1967 201° Southwest  Level FlightAware Approximate
Wed 11:25:07 PM 41.6147 -88.0742 201° Southwest 361 415 13,600  Level Chicago Center
Wed 11:26:08 PM 41.5111 -88.1236 200° South 400 460 15,100 1,574 Climbing Chicago Center
Wed 11:27:09 PM 41.4056 -88.1725 199° South 421 484 16,800 1,820 Climbing Chicago Center
Wed 11:28:10 PM 41.2967 -88.2228 199° South 425 489 18,800 1,967 Climbing Chicago Center
Wed 11:29:11 PM 41.1864 -88.2744 199° South 425 489 20,800 1,869 Climbing Chicago Center
Wed 11:30:12 PM 41.0767 -88.3244 199° South 421 484 22,600 1,721 Climbing Chicago Center
Wed 11:31:13 PM 40.9411 -88.3850 199° South 428 493 24,300 1,525 Climbing Chicago Center
Wed 11:32:14 PM 40.8250 -88.4372 199° South 439 505 25,700 1,377 Climbing Chicago Center
Wed 11:33:15 PM 40.7083 -88.4917 199° South 446 513 27,100 1,377 Climbing Chicago Center
Wed 11:34:16 PM 40.5997 -88.5628 206° Southwest 449 517 28,500 1,377 Climbing Chicago Center
Wed 11:35:17 PM 40.5083 -88.6669 221° Southwest 439 505 29,900 1,279 Climbing Chicago Center
Wed 11:36:18 PM 40.4106 -88.7756 220° Southwest 441 507 31,100 1,131 Climbing Chicago Center
Wed 11:37:19 PM 40.3178 -88.8811 221° Southwest 441 507 32,200 1,082 Climbing Chicago Center
Wed 11:38:20 PM 40.2231 -88.9867 220° Southwest 442 509 33,300 1,082 Climbing Chicago Center
Wed 11:39:21 PM 40.1300 -89.0889 220° Southwest 438 504 34,400 1,091 Climbing Chicago Center
Wed 11:40:21 PM 40.0261 -89.1728 212° Southwest 448 516 35,500 1,043 Climbing Chicago Center
Wed 11:41:16 PM 39.9308 -89.2067 195° South 440 506 36,400 1,190 Climbing Kansas City Center
Wed 11:42:17 PM 39.7894 -89.2556 195° South 436 502 37,800 1,131 Climbing Kansas City Center
Wed 11:43:18 PM 39.6819 -89.2989 197° South 427 491 38,700 787 Climbing Kansas City Center
Wed 11:44:19 PM 39.5761 -89.3556 202° Southwest 416 479 39,400 541 Climbing Kansas City Center
Wed 11:45:20 PM 39.4775 -89.4264 209° Southwest 408 470 39,800 295 Climbing Kansas City Center
Wed 11:46:21 PM 39.3897 -89.5200 220° Southwest 407 468 40,000 98 Climbing Kansas City Center
Wed 11:47:23 PM 39.3092 -89.6228 225° Southwest 408 470 40,000  Level Kansas City Center
Wed 11:48:24 PM 39.2478 -89.7475 238° Southwest 410 472 40,000  Level Kansas City Center
Wed 11:49:25 PM 39.1717 -89.8956 236° Southwest 417 480 40,000  Level Kansas City Center
Wed 11:50:26 PM 39.1192 -89.9964 236° Southwest 419 482 40,000  Level Kansas City Center
Wed 11:51:27 PM 39.0397 -90.1453 236° Southwest 420 483 40,000  Level Kansas City Center
Wed 11:52:28 PM 38.9744 -90.2697 236° Southwest 422 486 40,000  Level Kansas City Center
Wed 11:53:29 PM 38.9167 -90.3833 237° Southwest 421 484 40,000  Level Kansas City Center
Wed 11:54:30 PM 38.8475 -90.5108 235° Southwest 428 493 40,000  Level Kansas City Center
Wed 11:55:31 PM 38.7661 -90.6656 236° Southwest 426 490 40,000  Level Kansas City Center
Wed 11:56:32 PM 38.7122 -90.7764 238° Southwest 422 486 40,000  Level Kansas City Center
Wed 11:57:33 PM 38.6469 -90.9044 237° Southwest 432 497 40,000  Level Kansas City Center
Wed 11:58:34 PM 38.5653 -91.0617 236° Southwest 442 509 40,000  Level Kansas City Center
Wed 11:59:35 PM 38.4992 -91.1889 236° Southwest 439 505 40,000  Level Kansas City Center
Thu 12:00:36 AM 38.4336 -91.3158 237° Southwest 435 501 40,000  Level Kansas City Center
Thu 12:01:37 AM 38.3703 -91.4406 237° Southwest 423 487 40,000  Level Kansas City Center
Thu 12:02:38 AM 38.3033 -91.5669 236° Southwest 424 488 40,000  Level Kansas City Center
Thu 12:03:39 AM 38.2367 -91.6944 236° Southwest 428 493 40,000  Level Kansas City Center
Thu 12:04:40 AM 38.1694 -91.8219 236° Southwest 431 496 40,000  Level Kansas City Center
Thu 12:05:41 AM 38.1025 -91.9497 236° Southwest 440 506 40,000  Level Kansas City Center
Thu 12:06:42 AM 38.0350 -92.0772 236° Southwest 449 517 40,000  Level Kansas City Center
Thu 12:07:43 AM 37.9689 -92.2031 236° Southwest 435 501 40,000  Level Kansas City Center
Thu 12:08:44 AM 37.9003 -92.3308 236° Southwest 438 504 40,000  Level Kansas City Center
Thu 12:09:45 AM 37.8311 -92.4553 235° Southwest 435 501 40,000  Level Kansas City Center
Thu 12:10:46 AM 37.7525 -92.6056 237° Southwest 429 494 40,000  Level Kansas City Center
Thu 12:11:47 AM 37.6844 -92.7306 235° Southwest 432 497 40,000  Level Kansas City Center
Thu 12:12:48 AM 37.6247 -92.8503 238° Southwest 429 494 40,000  Level Kansas City Center
Thu 12:13:48 AM 37.5667 -92.9839 241° Southwest 431 496 40,000  Level Kansas City Center
Thu 12:14:49 AM 37.5086 -93.1178 241° Southwest 433 498 40,000  Level Kansas City Center
Thu 12:15:50 AM 37.4492 -93.2514 241° Southwest 435 501 40,000  Level Kansas City Center
Thu 12:16:51 AM 37.3897 -93.3842 241° Southwest 436 502 40,000  Level Kansas City Center
Thu 12:17:52 AM 37.3303 -93.5178 241° Southwest 436 502 40,000  Level Kansas City Center
Thu 12:18:53 AM 37.2719 -93.6519 241° Southwest 437 503 40,000  Level Kansas City Center
Thu 12:19:54 AM 37.2114 -93.7850 240° Southwest 438 504 40,000  Level Kansas City Center
Thu 12:20:55 AM 37.1389 -93.9456 241° Southwest 439 505 40,000  Level Kansas City Center
Thu 12:21:56 AM 37.0806 -94.0753 241° Southwest 442 509 40,000  Level Kansas City Center
Thu 12:22:57 AM 37.0200 -94.2081 240° Southwest 441 507 40,000  Level Kansas City Center
Thu 12:23:58 AM 36.9594 -94.3417 240° Southwest 441 507 40,000  Level Kansas City Center
Thu 12:24:59 AM 36.8983 -94.4728 240° Southwest 438 504 40,000  Level Kansas City Center
Thu 12:26:00 AM 36.8392 -94.6025 240° Southwest 433 498 40,000  Level Kansas City Center
Thu 12:27:01 AM 36.7797 -94.7331 240° Southwest 433 498 40,000  Level Kansas City Center
Thu 12:28:02 AM 36.7206 -94.8608 240° Southwest 428 493 40,000  Level Kansas City Center
Thu 12:29:02 AM 36.6608 -94.9892 240° Southwest 427 491 40,000  Level Kansas City Center
Thu 12:30:03 AM 36.5919 -95.1350 240° Southwest 426 490 40,000 -590 Level Kansas City Center
Thu 12:31:04 AM 36.5325 -95.2625 240° Southwest 427 491 38,800 -1,525 Descending Kansas City Center
Thu 12:32:05 AM 36.4742 -95.3869 240° Southwest 423 487 36,900 -1,820 Descending Kansas City Center
Thu 12:33:06 AM 36.4144 -95.5069 238° Southwest 416 479 35,100 -1,721 Descending Kansas City Center
Thu 12:34:07 AM 36.3544 -95.6381 240° Southwest 437 503 33,400 -1,736 Descending Kansas City Center
Thu 12:35:07 AM 36.2944 -95.7639 239° Southwest 439 505 31,600 -1,785 Descending Kansas City Center
Thu 12:36:08 AM 36.2311 -95.8958 239° Southwest 444 511 29,800 -1,770 Descending Kansas City Center
Thu 12:37:09 AM 36.1642 -96.0336 239° Southwest 461 531 28,000 -1,770 Descending Kansas City Center
Thu 12:38:10 AM 36.1000 -96.1664 239° Southwest 456 525 26,200 -1,770 Descending Kansas City Center
Thu 12:39:11 AM 36.0358 -96.2994 239° Southwest 452 520 24,400 -1,835 Descending Kansas City Center
Thu 12:40:11 AM 35.9678 -96.4403 239° Southwest 465 535 22,500 -1,884 Descending Kansas City Center
Thu 12:41:12 AM 35.9031 -96.5717 239° Southwest 455 524 20,600 -1,967 Descending Kansas City Center
Thu 12:42:13 AM 35.8403 -96.7003 239° Southwest 443 510 18,500 -2,182 Descending Kansas City Center
Thu 12:43:13 AM 35.7800 -96.8228 239° Southwest 427 491 16,200 -2,529 Descending Kansas City Center
Thu 12:44:14 AM 35.7378 -96.9431 247° West 393 452 13,400 -2,852 Descending Kansas City Center
Thu 12:45:15 AM 35.6975 -97.0794 250° West 365 420 10,400 -2,380 Descending Kansas City Center
Thu 12:46:15 AM 35.6742 -97.1728 253° West 300 345 8,600 -1,983 Descending Kansas City Center
Thu 12:47:16 AM 35.6511 -97.2600 252° West 274 315 6,400 -1,956 Descending Kansas City Center
Thu 12:48:30 AM 35.6189 -97.3675 250° West 244 281 4,200 -1,075 Descending Fort Worth Center
Thu 12:49:30 AM 35.6003 -97.4417 253° West 223 257 4,000 -99 Descending Fort Worth Center
Thu 12:50:31 AM 35.5814 -97.5131 252° West 225 259 4,000 -49 Level Fort Worth Center
Thu 12:51:32 AM 35.5561 -97.5769 244° Southwest 209 241 3,900 -98 Descending Fort Worth Center

Login

Don't have an account? Register now (free) for customized features, flight alerts, and more!